sensor_id;sensor_type;location;lat;lon;timestamp;temperature;humidity
851;DHT22;412;51.400;7.480;2024-01-15T00:01:59;5.10;99.90
851;DHT22;412;51.400;7.480;2024-01-15T00:04:25;5.00;99.90
851;DHT22;412;51.400;7.480;2024-01-15T00:06:51;5.00;99.90
851;DHT22;412;51.400;7.480;2024-01-15T00:09:16;5.00;99.90
851;DHT22;412;51.400;7.480;2024-01-15T00:11:42;5.10;99.90
851;DHT22;412;51.400;7.480;2024-01-15T00:14:08;5.00;99.90
851;DHT22;412;51.400;7.480;2024-01-15T00:16:34;5.00;99.90
851;DHT22;412;51.400;7.480;2024-01-15T00:19:00;5.00;99.90
851;DHT22;412;51.400;7.480;2024-01-15T00:21:26;5.10;99.90
851;DHT22;412;51.400;7.480;2024-01-15T00:23:53;5.20;99.90
851;DHT22;412;51.400;7.480;2024-01-15T00:26:19;5.20;99.90
851;DHT22;412;51.400;7.480;2024-01-15T00:28:45;5.20;99.90
851;DHT22;412;51.400;7.480;2024-01-15T00:31:10;5.10;99.90
851;DHT22;412;51.400;7.480;2024-01-15T00:33:36;5.20;99.90
851;DHT22;412;51.400;7.480;2024-01-15T00:36:02;5.10;99.90
851;DHT22;412;51.400;7.480;2024-01-15T00:38:28;5.20;99.90
851;DHT22;412;51.400;7.480;2024-01-15T00:40:54;5.30;99.90
851;DHT22;412;51.400;7.480;2024-01-15T00:43:20;5.40;99.90
851;DHT22;412;51.400;7.480;2024-01-15T00:45:46;5.50;99.90
851;DHT22;412;51.400;7.480;2024-01-15T00:48:12;5.40;99.90
851;DHT22;412;51.400;7.480;2024-01-15T00:50:38;5.40;99.90
851;DHT22;412;51.400;7.480;2024-01-15T00:53:03;5.40;99.90
851;DHT22;412;51.400;7.480;2024-01-15T00:55:29;5.40;99.90
851;DHT22;412;51.400;7.480;2024-01-15T00:57:55;5.40;99.90
851;DHT22;412;51.400;7.480;2024-01-15T01:00:21;5.30;99.90
851;DHT22;412;51.400;7.480;2024-01-15T01:02:47;5.20;99.90
851;DHT22;412;51.400;7.480;2024-01-15T01:05:12;5.20;99.90
851;DHT22;412;51.400;7.480;2024-01-15T01:07:38;5.30;99.90
851;DHT22;412;51.400;7.480;2024-01-15T01:10:05;5.20;99.90
851;DHT22;412;51.400;7.480;2024-01-15T01:12:30;5.20;99.90
851;DHT22;412;51.400;7.480;2024-01-15T01:14:56;5.20;99.90
851;DHT22;412;51.400;7.480;2024-01-15T01:17:22;5.10;99.90
851;DHT22;412;51.400;7.480;2024-01-15T01:19:49;5.10;99.90
851;DHT22;412;51.400;7.480;2024-01-15T01:22:15;5.20;99.90
851;DHT22;412;51.400;7.480;2024-01-15T01:24:40;5.20;99.90
851;DHT22;412;51.400;7.480;2024-01-15T01:27:06;5.20;99.90
851;DHT22;412;51.400;7.480;2024-01-15T01:29:32;5.20;99.90
851;DHT22;412;51.400;7.480;2024-01-15T01:31:58;5.30;99.90
851;DHT22;412;51.400;7.480;2024-01-15T01:34:24;5.20;99.90
851;DHT22;412;51.400;7.480;2024-01-15T01:36:50;5.20;99.90
851;DHT22;412;51.400;7.480;2024-01-15T01:39:16;5.20;99.90
851;DHT22;412;51.400;7.480;2024-01-15T01:41:42;5.20;99.90
851;DHT22;412;51.400;7.480;2024-01-15T01:44:07;5.20;99.90
851;DHT22;412;51.400;7.480;2024-01-15T01:46:34;5.20;99.90
851;DHT22;412;51.400;7.480;2024-01-15T01:49:05;5.20;99.90
851;DHT22;412;51.400;7.480;2024-01-15T01:51:33;5.20;99.90
851;DHT22;412;51.400;7.480;2024-01-15T01:54:00;5.30;99.90
851;DHT22;412;51.400;7.480;2024-01-15T01:56:26;5.30;99.90
851;DHT22;412;51.400;7.480;2024-01-15T01:58:52;5.20;99.90
851;DHT22;412;51.400;7.480;2024-01-15T02:01:18;5.20;99.90
851;DHT22;412;51.400;7.480;2024-01-15T02:03:45;5.20;99.90
851;DHT22;412;51.400;7.480;2024-01-15T02:06:11;5.30;99.90
851;DHT22;412;51.400;7.480;2024-01-15T02:08:37;5.30;99.90
851;DHT22;412;51.400;7.480;2024-01-15T02:11:03;5.30;99.90
851;DHT22;412;51.400;7.480;2024-01-15T02:13:29;5.30;99.90
851;DHT22;412;51.400;7.480;2024-01-15T02:15:55;5.30;99.90
851;DHT22;412;51.400;7.480;2024-01-15T02:18:20;5.30;99.90
851;DHT22;412;51.400;7.480;2024-01-15T02:20:46;5.30;99.90
851;DHT22;412;51.400;7.480;2024-01-15T02:23:16;5.40;99.90
851;DHT22;412;51.400;7.480;2024-01-15T02:25:43;5.20;99.90
851;DHT22;412;51.400;7.480;2024-01-15T02:28:12;5.40;99.90
851;DHT22;412;51.400;7.480;2024-01-15T02:30:39;5.30;99.90
851;DHT22;412;51.400;7.480;2024-01-15T02:33:06;5.30;99.90
851;DHT22;412;51.400;7.480;2024-01-15T02:35:32;5.30;99.90
851;DHT22;412;51.400;7.480;2024-01-15T02:37:58;5.30;99.90
851;DHT22;412;51.400;7.480;2024-01-15T02:40:24;5.40;99.90
851;DHT22;412;51.400;7.480;2024-01-15T02:42:50;5.20;99.90
851;DHT22;412;51.400;7.480;2024-01-15T02:45:17;5.30;99.90
851;DHT22;412;51.400;7.480;2024-01-15T02:47:42;5.40;99.90
851;DHT22;412;51.400;7.480;2024-01-15T02:50:08;5.30;99.90
851;DHT22;412;51.400;7.480;2024-01-15T02:52:34;5.40;99.90
851;DHT22;412;51.400;7.480;2024-01-15T02:55:00;5.30;99.90
851;DHT22;412;51.400;7.480;2024-01-15T02:57:26;5.30;99.90
851;DHT22;412;51.400;7.480;2024-01-15T02:59:51;5.30;99.90
851;DHT22;412;51.400;7.480;2024-01-15T03:02:17;5.40;99.90
851;DHT22;412;51.400;7.480;2024-01-15T03:04:46;5.40;99.90
851;DHT22;412;51.400;7.480;2024-01-15T03:07:12;5.40;99.90
851;DHT22;412;51.400;7.480;2024-01-15T03:09:38;5.50;99.90
851;DHT22;412;51.400;7.480;2024-01-15T03:12:04;5.40;99.90
851;DHT22;412;51.400;7.480;2024-01-15T03:14:30;5.40;99.90
851;DHT22;412;51.400;7.480;2024-01-15T03:16:56;5.30;99.90
851;DHT22;412;51.400;7.480;2024-01-15T03:19:22;5.30;99.90
851;DHT22;412;51.400;7.480;2024-01-15T03:21:47;5.40;99.90
851;DHT22;412;51.400;7.480;2024-01-15T03:24:13;5.40;99.90
851;DHT22;412;51.400;7.480;2024-01-15T03:26:39;5.50;99.90
851;DHT22;412;51.400;7.480;2024-01-15T03:29:05;5.40;99.90
851;DHT22;412;51.400;7.480;2024-01-15T03:31:31;5.40;99.90
851;DHT22;412;51.400;7.480;2024-01-15T03:33:57;5.40;99.90
851;DHT22;412;51.400;7.480;2024-01-15T03:36:22;5.40;99.90
851;DHT22;412;51.400;7.480;2024-01-15T03:38:48;5.30;99.90
851;DHT22;412;51.400;7.480;2024-01-15T03:41:14;5.40;99.90
851;DHT22;412;51.400;7.480;2024-01-15T03:43:39;5.40;99.90
851;DHT22;412;51.400;7.480;2024-01-15T03:46:05;5.30;99.90
851;DHT22;412;51.400;7.480;2024-01-15T03:48:32;5.40;99.90
851;DHT22;412;51.400;7.480;2024-01-15T03:50:58;5.30;99.90
851;DHT22;412;51.400;7.480;2024-01-15T03:53:23;5.30;99.90
851;DHT22;412;51.400;7.480;2024-01-15T03:55:50;5.40;99.90
851;DHT22;412;51.400;7.480;2024-01-15T03:58:16;5.40;99.90
851;DHT22;412;51.400;7.480;2024-01-15T04:00:42;5.40;99.90
851;DHT22;412;51.400;7.480;2024-01-15T04:03:08;5.40;99.90
851;DHT22;412;51.400;7.480;2024-01-15T04:05:34;5.50;99.90
851;DHT22;412;51.400;7.480;2024-01-15T04:07:59;5.40;99.90
851;DHT22;412;51.400;7.480;2024-01-15T04:10:25;5.40;99.90
851;DHT22;412;51.400;7.480;2024-01-15T04:12:51;5.40;99.90
851;DHT22;412;51.400;7.480;2024-01-15T04:15:17;5.40;99.90
851;DHT22;412;51.400;7.480;2024-01-15T04:17:42;5.40;99.90
851;DHT22;412;51.400;7.480;2024-01-15T04:20:09;5.50;99.90
851;DHT22;412;51.400;7.480;2024-01-15T04:22:35;5.50;99.90
851;DHT22;412;51.400;7.480;2024-01-15T04:25:01;5.50;99.90
851;DHT22;412;51.400;7.480;2024-01-15T04:27:27;5.40;99.90
851;DHT22;412;51.400;7.480;2024-01-15T04:29:53;5.40;99.90
851;DHT22;412;51.400;7.480;2024-01-15T04:32:19;5.40;99.90
851;DHT22;412;51.400;7.480;2024-01-15T04:34:45;5.40;99.90
851;DHT22;412;51.400;7.480;2024-01-15T04:37:11;5.40;99.90
851;DHT22;412;51.400;7.480;2024-01-15T04:39:36;5.40;99.90
851;DHT22;412;51.400;7.480;2024-01-15T04:42:03;5.50;99.90
851;DHT22;412;51.400;7.480;2024-01-15T04:44:29;5.40;99.90
851;DHT22;412;51.400;7.480;2024-01-15T04:46:54;5.50;99.90
851;DHT22;412;51.400;7.480;2024-01-15T04:49:20;5.50;99.90
851;DHT22;412;51.400;7.480;2024-01-15T04:51:46;5.60;99.90
851;DHT22;412;51.400;7.480;2024-01-15T04:54:12;5.50;99.90
851;DHT22;412;51.400;7.480;2024-01-15T04:56:38;5.50;99.90
851;DHT22;412;51.400;7.480;2024-01-15T04:59:03;5.50;99.90
851;DHT22;412;51.400;7.480;2024-01-15T05:01:32;5.50;99.90
851;DHT22;412;51.400;7.480;2024-01-15T05:03:58;5.40;99.90
851;DHT22;412;51.400;7.480;2024-01-15T05:06:24;5.40;99.90
851;DHT22;412;51.400;7.480;2024-01-15T05:08:50;5.40;99.90
851;DHT22;412;51.400;7.480;2024-01-15T05:11:16;5.40;99.90
851;DHT22;412;51.400;7.480;2024-01-15T05:13:42;5.40;99.90
851;DHT22;412;51.400;7.480;2024-01-15T05:16:07;5.40;99.90
851;DHT22;412;51.400;7.480;2024-01-15T05:18:33;5.40;99.90
851;DHT22;412;51.400;7.480;2024-01-15T05:20:59;5.30;99.90
851;DHT22;412;51.400;7.480;2024-01-15T05:23:25;5.30;99.90
851;DHT22;412;51.400;7.480;2024-01-15T05:25:50;5.30;99.90
851;DHT22;412;51.400;7.480;2024-01-15T05:28:16;5.40;99.90
851;DHT22;412;51.400;7.480;2024-01-15T05:30:42;5.40;99.90
851;DHT22;412;51.400;7.480;2024-01-15T05:33:08;5.50;99.90
851;DHT22;412;51.400;7.480;2024-01-15T05:35:34;5.40;99.90
851;DHT22;412;51.400;7.480;2024-01-15T05:38:00;5.40;99.90
851;DHT22;412;51.400;7.480;2024-01-15T05:40:26;5.40;99.90
851;DHT22;412;51.400;7.480;2024-01-15T05:42:51;5.50;99.90
851;DHT22;412;51.400;7.480;2024-01-15T05:45:17;5.50;99.90
851;DHT22;412;51.400;7.480;2024-01-15T05:47:43;5.50;99.90
851;DHT22;412;51.400;7.480;2024-01-15T05:50:10;5.40;99.90
851;DHT22;412;51.400;7.480;2024-01-15T05:52:36;5.50;99.90
851;DHT22;412;51.400;7.480;2024-01-15T05:55:02;5.40;99.90
851;DHT22;412;51.400;7.480;2024-01-15T05:57:27;5.30;99.90
851;DHT22;412;51.400;7.480;2024-01-15T05:59:54;5.30;99.90
851;DHT22;412;51.400;7.480;2024-01-15T06:02:19;5.30;99.90
851;DHT22;412;51.400;7.480;2024-01-15T06:04:45;5.30;99.90
851;DHT22;412;51.400;7.480;2024-01-15T06:07:11;5.20;99.90
851;DHT22;412;51.400;7.480;2024-01-15T06:09:37;5.30;99.90
851;DHT22;412;51.400;7.480;2024-01-15T06:12:04;5.30;99.90
851;DHT22;412;51.400;7.480;2024-01-15T06:14:30;5.30;99.90
851;DHT22;412;51.400;7.480;2024-01-15T06:16:56;5.30;99.90
851;DHT22;412;51.400;7.480;2024-01-15T06:19:22;5.30;99.90
851;DHT22;412;51.400;7.480;2024-01-15T06:21:48;5.40;99.90
851;DHT22;412;51.400;7.480;2024-01-15T06:24:13;5.40;99.90
851;DHT22;412;51.400;7.480;2024-01-15T06:26:40;5.40;99.90
851;DHT22;412;51.400;7.480;2024-01-15T06:29:06;5.30;99.90
851;DHT22;412;51.400;7.480;2024-01-15T06:31:32;5.40;99.90
851;DHT22;412;51.400;7.480;2024-01-15T06:33:58;5.40;99.90
851;DHT22;412;51.400;7.480;2024-01-15T06:36:23;5.30;99.90
851;DHT22;412;51.400;7.480;2024-01-15T06:38:49;5.40;99.90
851;DHT22;412;51.400;7.480;2024-01-15T06:41:15;5.40;99.90
851;DHT22;412;51.400;7.480;2024-01-15T06:43:40;5.40;99.90
851;DHT22;412;51.400;7.480;2024-01-15T06:46:06;5.30;99.90
851;DHT22;412;51.400;7.480;2024-01-15T06:48:32;5.30;99.90
851;DHT22;412;51.400;7.480;2024-01-15T06:50:58;5.20;99.90
851;DHT22;412;51.400;7.480;2024-01-15T06:53:24;5.20;99.90
851;DHT22;412;51.400;7.480;2024-01-15T06:55:50;5.30;99.90
851;DHT22;412;51.400;7.480;2024-01-15T06:58:16;5.30;99.90
851;DHT22;412;51.400;7.480;2024-01-15T07:00:42;5.30;99.90
851;DHT22;412;51.400;7.480;2024-01-15T07:03:08;5.30;99.90
851;DHT22;412;51.400;7.480;2024-01-15T07:05:34;5.20;99.90
851;DHT22;412;51.400;7.480;2024-01-15T07:07:59;5.30;99.90
851;DHT22;412;51.400;7.480;2024-01-15T07:10:25;5.10;99.90
851;DHT22;412;51.400;7.480;2024-01-15T07:12:51;5.10;99.90
851;DHT22;412;51.400;7.480;2024-01-15T07:15:17;5.20;99.90
851;DHT22;412;51.400;7.480;2024-01-15T07:17:43;5.20;99.90
851;DHT22;412;51.400;7.480;2024-01-15T07:20:09;5.20;99.90
851;DHT22;412;51.400;7.480;2024-01-15T07:22:38;5.20;99.90
851;DHT22;412;51.400;7.480;2024-01-15T07:25:05;5.30;99.90
851;DHT22;412;51.400;7.480;2024-01-15T07:27:32;5.40;99.90
851;DHT22;412;51.400;7.480;2024-01-15T07:29:58;5.40;99.90
851;DHT22;412;51.400;7.480;2024-01-15T07:32:24;5.30;99.90
851;DHT22;412;51.400;7.480;2024-01-15T07:34:50;5.30;99.90
851;DHT22;412;51.400;7.480;2024-01-15T07:37:15;5.40;99.90
851;DHT22;412;51.400;7.480;2024-01-15T07:39:41;5.40;99.90
851;DHT22;412;51.400;7.480;2024-01-15T07:42:07;5.30;99.90
851;DHT22;412;51.400;7.480;2024-01-15T07:44:33;5.30;99.90
851;DHT22;412;51.400;7.480;2024-01-15T07:46:59;5.20;99.90
851;DHT22;412;51.400;7.480;2024-01-15T07:49:25;5.20;99.90
851;DHT22;412;51.400;7.480;2024-01-15T07:51:50;5.20;99.90
851;DHT22;412;51.400;7.480;2024-01-15T07:54:16;5.30;99.90
851;DHT22;412;51.400;7.480;2024-01-15T07:56:59;5.20;99.90
851;DHT22;412;51.400;7.480;2024-01-15T07:59:25;5.20;99.90
851;DHT22;412;51.400;7.480;2024-01-15T08:01:52;5.20;99.90
851;DHT22;412;51.400;7.480;2024-01-15T08:04:18;5.20;99.90
851;DHT22;412;51.400;7.480;2024-01-15T08:06:44;5.20;99.90
851;DHT22;412;51.400;7.480;2024-01-15T08:09:11;5.30;99.90
851;DHT22;412;51.400;7.480;2024-01-15T08:11:39;5.30;99.90
851;DHT22;412;51.400;7.480;2024-01-15T08:14:06;5.40;99.90
851;DHT22;412;51.400;7.480;2024-01-15T08:16:32;5.40;99.90
851;DHT22;412;51.400;7.480;2024-01-15T08:18:57;5.30;99.90
851;DHT22;412;51.400;7.480;2024-01-15T08:21:23;5.30;99.90
851;DHT22;412;51.400;7.480;2024-01-15T08:23:49;5.30;99.90
851;DHT22;412;51.400;7.480;2024-01-15T08:26:15;5.30;99.90
851;DHT22;412;51.400;7.480;2024-01-15T08:28:41;5.30;99.90
851;DHT22;412;51.400;7.480;2024-01-15T08:31:06;5.30;99.90
851;DHT22;412;51.400;7.480;2024-01-15T08:33:32;5.30;99.90
851;DHT22;412;51.400;7.480;2024-01-15T08:35:58;5.30;99.90
851;DHT22;412;51.400;7.480;2024-01-15T08:38:24;5.30;99.90
851;DHT22;412;51.400;7.480;2024-01-15T08:40:50;5.30;99.90
851;DHT22;412;51.400;7.480;2024-01-15T08:43:18;5.80;99.90
851;DHT22;412;51.400;7.480;2024-01-15T08:45:44;6.30;99.90
851;DHT22;412;51.400;7.480;2024-01-15T08:48:11;6.90;99.90
851;DHT22;412;51.400;7.480;2024-01-15T08:50:36;7.50;99.90
851;DHT22;412;51.400;7.480;2024-01-15T08:53:02;7.90;99.90
851;DHT22;412;51.400;7.480;2024-01-15T08:55:29;8.20;99.90
851;DHT22;412;51.400;7.480;2024-01-15T08:57:55;8.60;99.90
851;DHT22;412;51.400;7.480;2024-01-15T09:00:20;8.90;99.90
851;DHT22;412;51.400;7.480;2024-01-15T09:02:46;9.10;99.90
851;DHT22;412;51.400;7.480;2024-01-15T09:05:12;9.20;99.90
851;DHT22;412;51.400;7.480;2024-01-15T09:07:38;9.40;99.90
851;DHT22;412;51.400;7.480;2024-01-15T09:10:04;9.60;99.90
851;DHT22;412;51.400;7.480;2024-01-15T09:12:30;9.70;99.90
851;DHT22;412;51.400;7.480;2024-01-15T09:14:55;10.00;99.90
851;DHT22;412;51.400;7.480;2024-01-15T09:17:22;10.10;99.90
851;DHT22;412;51.400;7.480;2024-01-15T09:19:49;9.80;99.90
851;DHT22;412;51.400;7.480;2024-01-15T09:22:15;9.40;99.90
851;DHT22;412;51.400;7.480;2024-01-15T09:24:44;9.00;99.90
851;DHT22;412;51.400;7.480;2024-01-15T09:27:11;8.60;99.90
851;DHT22;412;51.400;7.480;2024-01-15T09:29:36;8.30;99.90
851;DHT22;412;51.400;7.480;2024-01-15T09:32:06;7.80;99.90
851;DHT22;412;51.400;7.480;2024-01-15T09:34:33;7.40;99.90
851;DHT22;412;51.400;7.480;2024-01-15T09:36:59;7.00;99.90
851;DHT22;412;51.400;7.480;2024-01-15T09:39:27;6.80;99.90
851;DHT22;412;51.400;7.480;2024-01-15T09:41:56;6.60;99.90
851;DHT22;412;51.400;7.480;2024-01-15T09:44:23;6.30;99.90
851;DHT22;412;51.400;7.480;2024-01-15T09:46:49;6.10;99.90
851;DHT22;412;51.400;7.480;2024-01-15T09:49:18;6.00;99.90
851;DHT22;412;51.400;7.480;2024-01-15T09:51:44;5.90;99.90
851;DHT22;412;51.400;7.480;2024-01-15T09:54:10;5.90;99.90
851;DHT22;412;51.400;7.480;2024-01-15T09:56:36;5.70;99.90
851;DHT22;412;51.400;7.480;2024-01-15T09:59:02;5.60;99.90
851;DHT22;412;51.400;7.480;2024-01-15T10:01:31;5.40;99.90
851;DHT22;412;51.400;7.480;2024-01-15T10:03:58;5.30;99.90
851;DHT22;412;51.400;7.480;2024-01-15T10:06:26;5.20;99.90
851;DHT22;412;51.400;7.480;2024-01-15T10:08:57;5.20;99.90
851;DHT22;412;51.400;7.480;2024-01-15T10:11:26;5.20;99.90
851;DHT22;412;51.400;7.480;2024-01-15T10:13:52;5.00;99.90
851;DHT22;412;51.400;7.480;2024-01-15T10:16:21;4.90;99.90
851;DHT22;412;51.400;7.480;2024-01-15T10:18:50;4.90;99.90
851;DHT22;412;51.400;7.480;2024-01-15T10:21:16;4.90;99.90
851;DHT22;412;51.400;7.480;2024-01-15T10:23:42;4.90;99.90
851;DHT22;412;51.400;7.480;2024-01-15T10:26:08;4.90;99.90
851;DHT22;412;51.400;7.480;2024-01-15T10:28:34;4.90;99.90
851;DHT22;412;51.400;7.480;2024-01-15T10:31:01;5.00;99.90
851;DHT22;412;51.400;7.480;2024-01-15T10:33:27;5.00;99.90
851;DHT22;412;51.400;7.480;2024-01-15T10:35:57;5.00;99.90
851;DHT22;412;51.400;7.480;2024-01-15T10:38:24;4.90;99.90
851;DHT22;412;51.400;7.480;2024-01-15T10:40:54;4.90;99.90
851;DHT22;412;51.400;7.480;2024-01-15T10:43:21;4.90;99.90
851;DHT22;412;51.400;7.480;2024-01-15T10:45:49;4.90;99.90
851;DHT22;412;51.400;7.480;2024-01-15T10:48:17;5.00;99.90
851;DHT22;412;51.400;7.480;2024-01-15T10:50:44;5.10;99.90
851;DHT22;412;51.400;7.480;2024-01-15T10:53:12;5.10;99.90
851;DHT22;412;51.400;7.480;2024-01-15T10:55:39;5.00;99.90
851;DHT22;412;51.400;7.480;2024-01-15T10:58:05;5.00;99.90
851;DHT22;412;51.400;7.480;2024-01-15T11:00:35;5.10;99.90
851;DHT22;412;51.400;7.480;2024-01-15T11:03:01;5.00;99.90
851;DHT22;412;51.400;7.480;2024-01-15T11:05:28;5.10;99.90
851;DHT22;412;51.400;7.480;2024-01-15T11:07:58;5.10;99.90
851;DHT22;412;51.400;7.480;2024-01-15T11:13:07;5.20;99.90
851;DHT22;412;51.400;7.480;2024-01-15T11:18:22;5.10;99.90
851;DHT22;412;51.400;7.480;2024-01-15T11:23:46;5.10;99.90
851;DHT22;412;51.400;7.480;2024-01-15T11:26:37;5.00;99.90
851;DHT22;412;51.400;7.480;2024-01-15T11:29:07;5.00;99.90
851;DHT22;412;51.400;7.480;2024-01-15T11:34:05;4.90;99.90
851;DHT22;412;51.400;7.480;2024-01-15T11:42:01;5.00;99.90
851;DHT22;412;51.400;7.480;2024-01-15T11:44:29;4.90;99.90
851;DHT22;412;51.400;7.480;2024-01-15T11:47:03;5.00;99.90
851;DHT22;412;51.400;7.480;2024-01-15T11:50:00;5.00;99.90
851;DHT22;412;51.400;7.480;2024-01-15T11:52:38;5.00;99.90
851;DHT22;412;51.400;7.480;2024-01-15T11:57:49;5.00;99.90
851;DHT22;412;51.400;7.480;2024-01-15T12:00:16;4.90;99.90
851;DHT22;412;51.400;7.480;2024-01-15T12:02:45;5.00;99.90
851;DHT22;412;51.400;7.480;2024-01-15T12:05:13;4.90;99.90
851;DHT22;412;51.400;7.480;2024-01-15T12:07:40;4.90;99.90
851;DHT22;412;51.400;7.480;2024-01-15T12:10:13;4.90;99.90
851;DHT22;412;51.400;7.480;2024-01-15T12:13:00;4.90;99.90
851;DHT22;412;51.400;7.480;2024-01-15T12:15:30;4.90;99.90
851;DHT22;412;51.400;7.480;2024-01-15T12:17:57;5.00;99.90
851;DHT22;412;51.400;7.480;2024-01-15T12:20:28;5.00;99.90
851;DHT22;412;51.400;7.480;2024-01-15T12:22:54;5.10;99.90
851;DHT22;412;51.400;7.480;2024-01-15T12:25:24;5.20;99.90
851;DHT22;412;51.400;7.480;2024-01-15T12:27:52;5.20;99.90
851;DHT22;412;51.400;7.480;2024-01-15T12:30:18;5.20;99.90
851;DHT22;412;51.400;7.480;2024-01-15T12:32:44;5.20;99.90
851;DHT22;412;51.400;7.480;2024-01-15T12:35:11;5.10;99.90
851;DHT22;412;51.400;7.480;2024-01-15T12:37:40;5.10;99.90
851;DHT22;412;51.400;7.480;2024-01-15T12:40:07;5.10;99.90
851;DHT22;412;51.400;7.480;2024-01-15T12:42:33;5.10;99.90
851;DHT22;412;51.400;7.480;2024-01-15T12:45:00;5.10;99.90
851;DHT22;412;51.400;7.480;2024-01-15T12:47:26;5.10;99.90
851;DHT22;412;51.400;7.480;2024-01-15T12:49:52;5.00;99.90
851;DHT22;412;51.400;7.480;2024-01-15T12:52:21;5.00;99.90
851;DHT22;412;51.400;7.480;2024-01-15T12:54:48;5.00;99.90
851;DHT22;412;51.400;7.480;2024-01-15T12:57:14;5.00;99.90
851;DHT22;412;51.400;7.480;2024-01-15T12:59:40;5.00;99.90
851;DHT22;412;51.400;7.480;2024-01-15T13:02:06;5.00;99.90
851;DHT22;412;51.400;7.480;2024-01-15T13:04:32;4.90;99.90
851;DHT22;412;51.400;7.480;2024-01-15T13:06:58;4.90;99.90
851;DHT22;412;51.400;7.480;2024-01-15T13:09:23;4.90;99.90
851;DHT22;412;51.400;7.480;2024-01-15T13:11:49;4.90;99.90
851;DHT22;412;51.400;7.480;2024-01-15T13:14:15;4.90;99.90
851;DHT22;412;51.400;7.480;2024-01-15T13:16:41;5.00;99.90
851;DHT22;412;51.400;7.480;2024-01-15T13:19:08;5.00;99.90
851;DHT22;412;51.400;7.480;2024-01-15T13:21:34;4.90;99.90
851;DHT22;412;51.400;7.480;2024-01-15T13:24:00;4.90;99.90
851;DHT22;412;51.400;7.480;2024-01-15T13:26:26;4.80;99.90
851;DHT22;412;51.400;7.480;2024-01-15T13:28:53;4.90;99.90
851;DHT22;412;51.400;7.480;2024-01-15T13:31:19;4.80;99.90
851;DHT22;412;51.400;7.480;2024-01-15T13:33:44;4.80;99.90
851;DHT22;412;51.400;7.480;2024-01-15T13:36:10;4.80;99.90
851;DHT22;412;51.400;7.480;2024-01-15T13:38:39;4.70;99.90
851;DHT22;412;51.400;7.480;2024-01-15T13:41:05;4.70;99.90
851;DHT22;412;51.400;7.480;2024-01-15T13:43:32;4.80;99.90
851;DHT22;412;51.400;7.480;2024-01-15T13:45:58;4.80;99.90
851;DHT22;412;51.400;7.480;2024-01-15T13:48:24;4.90;99.90
851;DHT22;412;51.400;7.480;2024-01-15T13:50:50;4.90;99.90
851;DHT22;412;51.400;7.480;2024-01-15T13:53:16;4.90;99.90
851;DHT22;412;51.400;7.480;2024-01-15T13:55:42;5.00;99.90
851;DHT22;412;51.400;7.480;2024-01-15T13:58:08;5.00;99.90
851;DHT22;412;51.400;7.480;2024-01-15T14:00:33;5.10;99.90
851;DHT22;412;51.400;7.480;2024-01-15T14:02:59;5.00;99.90
851;DHT22;412;51.400;7.480;2024-01-15T14:05:25;5.00;99.90
851;DHT22;412;51.400;7.480;2024-01-15T14:07:51;5.00;99.90
851;DHT22;412;51.400;7.480;2024-01-15T14:10:17;5.10;99.90
851;DHT22;412;51.400;7.480;2024-01-15T14:12:43;5.10;99.90
851;DHT22;412;51.400;7.480;2024-01-15T14:15:09;5.10;99.90
851;DHT22;412;51.400;7.480;2024-01-15T14:17:35;5.10;99.90
851;DHT22;412;51.400;7.480;2024-01-15T14:20:00;5.10;99.90
851;DHT22;412;51.400;7.480;2024-01-15T14:22:26;5.10;99.90
851;DHT22;412;51.400;7.480;2024-01-15T14:24:52;5.10;99.90
851;DHT22;412;51.400;7.480;2024-01-15T14:27:18;5.10;99.90
851;DHT22;412;51.400;7.480;2024-01-15T14:29:44;5.10;99.90
851;DHT22;412;51.400;7.480;2024-01-15T14:32:11;5.00;99.90
851;DHT22;412;51.400;7.480;2024-01-15T14:34:37;5.00;99.90
851;DHT22;412;51.400;7.480;2024-01-15T14:37:03;5.00;99.90
851;DHT22;412;51.400;7.480;2024-01-15T14:39:29;5.00;99.90
851;DHT22;412;51.400;7.480;2024-01-15T14:41:57;5.00;99.90
851;DHT22;412;51.400;7.480;2024-01-15T14:44:23;5.00;99.90
851;DHT22;412;51.400;7.480;2024-01-15T14:46:49;5.00;99.90
851;DHT22;412;51.400;7.480;2024-01-15T14:49:15;5.00;99.90
851;DHT22;412;51.400;7.480;2024-01-15T14:51:43;5.10;99.90
851;DHT22;412;51.400;7.480;2024-01-15T14:54:10;5.10;99.90
851;DHT22;412;51.400;7.480;2024-01-15T14:56:36;4.90;99.90
851;DHT22;412;51.400;7.480;2024-01-15T14:59:02;5.00;99.90
851;DHT22;412;51.400;7.480;2024-01-15T15:01:28;5.00;99.90
851;DHT22;412;51.400;7.480;2024-01-15T15:03:54;4.90;99.90
851;DHT22;412;51.400;7.480;2024-01-15T15:06:19;4.90;99.90
851;DHT22;412;51.400;7.480;2024-01-15T15:08:46;4.90;99.90
851;DHT22;412;51.400;7.480;2024-01-15T15:11:12;4.90;99.90
851;DHT22;412;51.400;7.480;2024-01-15T15:13:39;4.90;99.90
851;DHT22;412;51.400;7.480;2024-01-15T15:16:05;4.90;99.90
851;DHT22;412;51.400;7.480;2024-01-15T15:18:31;4.90;99.90
851;DHT22;412;51.400;7.480;2024-01-15T15:20:57;4.80;99.90
851;DHT22;412;51.400;7.480;2024-01-15T15:23:23;4.80;99.90
851;DHT22;412;51.400;7.480;2024-01-15T15:25:49;4.80;99.90
851;DHT22;412;51.400;7.480;2024-01-15T15:28:15;4.70;99.90
851;DHT22;412;51.400;7.480;2024-01-15T15:30:42;4.70;99.90
851;DHT22;412;51.400;7.480;2024-01-15T15:33:07;4.70;99.90
851;DHT22;412;51.400;7.480;2024-01-15T15:35:34;4.70;99.90
851;DHT22;412;51.400;7.480;2024-01-15T15:38:00;4.70;99.90
851;DHT22;412;51.400;7.480;2024-01-15T15:40:26;4.70;99.90
851;DHT22;412;51.400;7.480;2024-01-15T15:42:52;4.70;99.90
851;DHT22;412;51.400;7.480;2024-01-15T15:45:18;4.70;99.90
851;DHT22;412;51.400;7.480;2024-01-15T15:47:44;4.80;99.90
851;DHT22;412;51.400;7.480;2024-01-15T15:50:10;4.80;99.90
851;DHT22;412;51.400;7.480;2024-01-15T15:52:36;4.80;99.90
851;DHT22;412;51.400;7.480;2024-01-15T15:55:02;4.70;99.90
851;DHT22;412;51.400;7.480;2024-01-15T15:57:28;4.70;99.90
851;DHT22;412;51.400;7.480;2024-01-15T15:59:55;4.70;99.90
851;DHT22;412;51.400;7.480;2024-01-15T16:02:21;4.80;99.90
851;DHT22;412;51.400;7.480;2024-01-15T16:04:48;4.70;99.90
851;DHT22;412;51.400;7.480;2024-01-15T16:07:14;4.70;99.90
851;DHT22;412;51.400;7.480;2024-01-15T16:09:40;4.80;99.90
851;DHT22;412;51.400;7.480;2024-01-15T16:12:07;4.70;99.90
851;DHT22;412;51.400;7.480;2024-01-15T16:14:34;4.70;99.90
851;DHT22;412;51.400;7.480;2024-01-15T16:17:00;4.80;99.90
851;DHT22;412;51.400;7.480;2024-01-15T16:19:26;4.70;99.90
851;DHT22;412;51.400;7.480;2024-01-15T16:21:52;5.20;99.90
851;DHT22;412;51.400;7.480;2024-01-15T16:24:18;6.40;99.90
851;DHT22;412;51.400;7.480;2024-01-15T16:26:45;7.40;99.90
851;DHT22;412;51.400;7.480;2024-01-15T16:29:11;8.00;99.90
851;DHT22;412;51.400;7.480;2024-01-15T16:31:40;8.30;99.90
851;DHT22;412;51.400;7.480;2024-01-15T16:34:05;8.90;99.90
851;DHT22;412;51.400;7.480;2024-01-15T16:36:32;9.40;99.90
851;DHT22;412;51.400;7.480;2024-01-15T16:38:58;9.80;99.90
851;DHT22;412;51.400;7.480;2024-01-15T16:41:23;10.30;99.90
851;DHT22;412;51.400;7.480;2024-01-15T16:43:49;10.50;99.90
851;DHT22;412;51.400;7.480;2024-01-15T16:46:15;10.80;99.90
851;DHT22;412;51.400;7.480;2024-01-15T16:48:41;10.60;98.10
851;DHT22;412;51.400;7.480;2024-01-15T16:51:07;10.20;95.40
851;DHT22;412;51.400;7.480;2024-01-15T16:53:33;9.70;95.90
851;DHT22;412;51.400;7.480;2024-01-15T16:55:59;8.80;96.90
851;DHT22;412;51.400;7.480;2024-01-15T16:58:24;7.90;99.90
851;DHT22;412;51.400;7.480;2024-01-15T17:00:50;7.40;99.90
851;DHT22;412;51.400;7.480;2024-01-15T17:03:16;7.00;99.90
851;DHT22;412;51.400;7.480;2024-01-15T17:05:42;6.60;99.90